sensor_id;sensor_type;location;lat;lon;timestamp;temperature;humidity
8928;DHT22;4499;48.304;11.902;2022-12-31T00:00:50;8.70;99.90
8928;DHT22;4499;48.304;11.902;2022-12-31T00:03:18;8.80;99.90
8928;DHT22;4499;48.304;11.902;2022-12-31T00:05:47;8.90;99.90
8928;DHT22;4499;48.304;11.902;2022-12-31T00:08:16;9.10;99.90
8928;DHT22;4499;48.304;11.902;2022-12-31T00:10:44;9.20;99.90
8928;DHT22;4499;48.304;11.902;2022-12-31T00:13:13;9.30;99.90
8928;DHT22;4499;48.304;11.902;2022-12-31T00:15:43;9.40;99.90
8928;DHT22;4499;48.304;11.902;2022-12-31T00:18:11;9.50;99.90
8928;DHT22;4499;48.304;11.902;2022-12-31T00:20:40;9.60;99.90
8928;DHT22;4499;48.304;11.902;2022-12-31T00:23:08;9.60;99.90
8928;DHT22;4499;48.304;11.902;2022-12-31T00:25:38;9.70;99.90
8928;DHT22;4499;48.304;11.902;2022-12-31T00:28:07;9.70;99.90
8928;DHT22;4499;48.304;11.902;2022-12-31T00:30:35;9.70;99.90
8928;DHT22;4499;48.304;11.902;2022-12-31T00:33:03;9.80;99.90
8928;DHT22;4499;48.304;11.902;2022-12-31T00:35:31;9.90;99.90
8928;DHT22;4499;48.304;11.902;2022-12-31T00:38:00;9.90;99.90
8928;DHT22;4499;48.304;11.902;2022-12-31T00:40:32;10.10;99.90
8928;DHT22;4499;48.304;11.902;2022-12-31T00:43:01;10.10;99.90
8928;DHT22;4499;48.304;11.902;2022-12-31T00:45:29;10.10;99.90
8928;DHT22;4499;48.304;11.902;2022-12-31T00:47:58;10.00;99.90
8928;DHT22;4499;48.304;11.902;2022-12-31T00:50:26;10.00;99.90
8928;DHT22;4499;48.304;11.902;2022-12-31T00:52:56;10.00;99.90
8928;DHT22;4499;48.304;11.902;2022-12-31T00:55:24;10.00;99.90
8928;DHT22;4499;48.304;11.902;2022-12-31T00:57:52;10.00;99.90
8928;DHT22;4499;48.304;11.902;2022-12-31T01:00:22;9.90;99.90
8928;DHT22;4499;48.304;11.902;2022-12-31T01:02:50;10.00;99.90
8928;DHT22;4499;48.304;11.902;2022-12-31T01:05:19;10.00;99.90
8928;DHT22;4499;48.304;11.902;2022-12-31T01:07:47;10.00;99.90
8928;DHT22;4499;48.304;11.902;2022-12-31T01:10:16;10.20;99.90
8928;DHT22;4499;48.304;11.902;2022-12-31T01:13:04;10.20;99.90
8928;DHT22;4499;48.304;11.902;2022-12-31T01:15:35;10.20;99.90
8928;DHT22;4499;48.304;11.902;2022-12-31T01:18:04;10.20;99.90
8928;DHT22;4499;48.304;11.902;2022-12-31T01:20:35;10.40;99.90
8928;DHT22;4499;48.304;11.902;2022-12-31T01:23:03;10.50;99.90
8928;DHT22;4499;48.304;11.902;2022-12-31T01:25:34;10.50;99.90
8928;DHT22;4499;48.304;11.902;2022-12-31T01:28:05;10.60;99.90
8928;DHT22;4499;48.304;11.902;2022-12-31T01:30:37;10.70;99.90
8928;DHT22;4499;48.304;11.902;2022-12-31T01:33:05;10.80;99.90
8928;DHT22;4499;48.304;11.902;2022-12-31T01:35:34;10.90;99.90
8928;DHT22;4499;48.304;11.902;2022-12-31T01:38:02;11.00;99.90
8928;DHT22;4499;48.304;11.902;2022-12-31T01:40:35;11.30;99.90
8928;DHT22;4499;48.304;11.902;2022-12-31T01:43:12;11.40;99.90
8928;DHT22;4499;48.304;11.902;2022-12-31T01:45:45;11.50;99.90
8928;DHT22;4499;48.304;11.902;2022-12-31T01:48:18;11.60;99.90
8928;DHT22;4499;48.304;11.902;2022-12-31T01:50:47;11.60;99.90
8928;DHT22;4499;48.304;11.902;2022-12-31T01:53:17;11.70;99.90
8928;DHT22;4499;48.304;11.902;2022-12-31T01:55:48;11.60;99.90
8928;DHT22;4499;48.304;11.902;2022-12-31T01:58:19;11.70;99.90
8928;DHT22;4499;48.304;11.902;2022-12-31T02:00:52;11.80;99.90
8928;DHT22;4499;48.304;11.902;2022-12-31T02:03:22;11.90;99.90
8928;DHT22;4499;48.304;11.902;2022-12-31T02:05:53;12.00;99.90
8928;DHT22;4499;48.304;11.902;2022-12-31T02:08:23;12.10;99.90
8928;DHT22;4499;48.304;11.902;2022-12-31T02:10:52;12.10;99.90
8928;DHT22;4499;48.304;11.902;2022-12-31T02:13:21;12.20;99.90
8928;DHT22;4499;48.304;11.902;2022-12-31T02:15:58;12.30;99.90
8928;DHT22;4499;48.304;11.902;2022-12-31T02:18:31;12.50;99.90
8928;DHT22;4499;48.304;11.902;2022-12-31T02:21:35;12.40;99.90
8928;DHT22;4499;48.304;11.902;2022-12-31T02:26:57;12.50;99.90
8928;DHT22;4499;48.304;11.902;2022-12-31T02:32:34;12.50;99.90
8928;DHT22;4499;48.304;11.902;2022-12-31T02:35:09;12.50;99.90
8928;DHT22;4499;48.304;11.902;2022-12-31T02:37:41;12.50;99.90
8928;DHT22;4499;48.304;11.902;2022-12-31T02:40:13;12.50;99.90
8928;DHT22;4499;48.304;11.902;2022-12-31T02:42:42;12.60;99.90
8928;DHT22;4499;48.304;11.902;2022-12-31T02:45:22;12.70;99.90
8928;DHT22;4499;48.304;11.902;2022-12-31T02:48:04;12.70;99.90
8928;DHT22;4499;48.304;11.902;2022-12-31T02:50:41;12.70;99.90
8928;DHT22;4499;48.304;11.902;2022-12-31T02:53:41;12.60;99.90
8928;DHT22;4499;48.304;11.902;2022-12-31T02:56:18;12.60;99.90
8928;DHT22;4499;48.304;11.902;2022-12-31T02:58:56;12.60;99.90
8928;DHT22;4499;48.304;11.902;2022-12-31T03:01:46;12.60;99.90
8928;DHT22;4499;48.304;11.902;2022-12-31T03:04:39;12.70;99.90
8928;DHT22;4499;48.304;11.902;2022-12-31T03:07:10;12.70;99.90
8928;DHT22;4499;48.304;11.902;2022-12-31T03:09:39;12.80;99.90
8928;DHT22;4499;48.304;11.902;2022-12-31T03:12:10;12.80;99.90
8928;DHT22;4499;48.304;11.902;2022-12-31T03:15:00;12.80;99.90
8928;DHT22;4499;48.304;11.902;2022-12-31T03:17:33;12.70;99.90
8928;DHT22;4499;48.304;11.902;2022-12-31T03:20:04;12.80;99.90
8928;DHT22;4499;48.304;11.902;2022-12-31T03:22:50;12.80;99.90
8928;DHT22;4499;48.304;11.902;2022-12-31T03:25:18;12.80;99.90
8928;DHT22;4499;48.304;11.902;2022-12-31T03:28:02;12.80;99.90
8928;DHT22;4499;48.304;11.902;2022-12-31T03:30:32;12.80;99.90
8928;DHT22;4499;48.304;11.902;2022-12-31T03:33:01;12.80;99.90
8928;DHT22;4499;48.304;11.902;2022-12-31T03:35:33;12.70;99.90
8928;DHT22;4499;48.304;11.902;2022-12-31T03:38:03;12.80;99.90
8928;DHT22;4499;48.304;11.902;2022-12-31T03:40:32;12.80;99.90
8928;DHT22;4499;48.304;11.902;2022-12-31T03:43:00;12.80;99.90
8928;DHT22;4499;48.304;11.902;2022-12-31T03:45:28;12.80;99.90
8928;DHT22;4499;48.304;11.902;2022-12-31T03:47:57;12.80;99.90
8928;DHT22;4499;48.304;11.902;2022-12-31T03:50:26;12.80;99.90
8928;DHT22;4499;48.304;11.902;2022-12-31T03:52:56;12.80;99.90
8928;DHT22;4499;48.304;11.902;2022-12-31T03:55:24;12.80;99.90
8928;DHT22;4499;48.304;11.902;2022-12-31T03:57:52;12.80;99.90
8928;DHT22;4499;48.304;11.902;2022-12-31T04:00:22;12.80;99.90
8928;DHT22;4499;48.304;11.902;2022-12-31T04:02:55;12.80;99.90
8928;DHT22;4499;48.304;11.902;2022-12-31T04:05:23;12.80;99.90
8928;DHT22;4499;48.304;11.902;2022-12-31T04:07:52;12.70;99.90
8928;DHT22;4499;48.304;11.902;2022-12-31T04:10:23;12.70;99.90
8928;DHT22;4499;48.304;11.902;2022-12-31T04:12:51;12.70;99.90
8928;DHT22;4499;48.304;11.902;2022-12-31T04:15:20;12.70;99.90
8928;DHT22;4499;48.304;11.902;2022-12-31T04:17:48;12.70;99.90
8928;DHT22;4499;48.304;11.902;2022-12-31T04:20:16;12.70;99.90
8928;DHT22;4499;48.304;11.902;2022-12-31T04:22:45;12.70;99.90
8928;DHT22;4499;48.304;11.902;2022-12-31T04:25:13;12.70;99.90
8928;DHT22;4499;48.304;11.902;2022-12-31T04:27:42;12.70;99.90
8928;DHT22;4499;48.304;11.902;2022-12-31T04:30:11;12.70;99.90
8928;DHT22;4499;48.304;11.902;2022-12-31T04:32:40;12.70;99.90
8928;DHT22;4499;48.304;11.902;2022-12-31T04:35:09;12.70;99.90
8928;DHT22;4499;48.304;11.902;2022-12-31T04:37:37;12.80;99.90
8928;DHT22;4499;48.304;11.902;2022-12-31T04:40:07;12.80;99.90
8928;DHT22;4499;48.304;11.902;2022-12-31T04:42:35;12.90;99.90
8928;DHT22;4499;48.304;11.902;2022-12-31T04:45:06;12.90;99.90
8928;DHT22;4499;48.304;11.902;2022-12-31T04:47:35;12.90;99.90
8928;DHT22;4499;48.304;11.902;2022-12-31T04:50:04;13.00;99.90
8928;DHT22;4499;48.304;11.902;2022-12-31T04:52:33;13.00;99.90
8928;DHT22;4499;48.304;11.902;2022-12-31T04:55:09;13.00;99.90
8928;DHT22;4499;48.304;11.902;2022-12-31T04:57:38;13.00;99.90
8928;DHT22;4499;48.304;11.902;2022-12-31T05:00:08;13.00;99.90
8928;DHT22;4499;48.304;11.902;2022-12-31T05:02:37;13.00;99.90
8928;DHT22;4499;48.304;11.902;2022-12-31T05:05:06;13.10;99.90
8928;DHT22;4499;48.304;11.902;2022-12-31T05:07:34;13.10;99.90
8928;DHT22;4499;48.304;11.902;2022-12-31T05:10:04;13.10;99.90
8928;DHT22;4499;48.304;11.902;2022-12-31T05:12:32;13.20;99.90
8928;DHT22;4499;48.304;11.902;2022-12-31T05:15:00;13.20;99.90
8928;DHT22;4499;48.304;11.902;2022-12-31T05:17:30;13.30;99.90
8928;DHT22;4499;48.304;11.902;2022-12-31T05:19:58;13.30;99.90
8928;DHT22;4499;48.304;11.902;2022-12-31T05:22:28;13.40;99.90
8928;DHT22;4499;48.304;11.902;2022-12-31T05:24:57;13.40;99.90
8928;DHT22;4499;48.304;11.902;2022-12-31T05:27:28;13.50;99.90
8928;DHT22;4499;48.304;11.902;2022-12-31T05:29:57;13.40;99.90
8928;DHT22;4499;48.304;11.902;2022-12-31T05:32:25;13.40;99.90
8928;DHT22;4499;48.304;11.902;2022-12-31T05:35:09;13.40;99.90
8928;DHT22;4499;48.304;11.902;2022-12-31T05:37:38;13.40;99.90
8928;DHT22;4499;48.304;11.902;2022-12-31T05:40:07;13.50;99.90
8928;DHT22;4499;48.304;11.902;2022-12-31T05:42:35;13.50;99.90
8928;DHT22;4499;48.304;11.902;2022-12-31T05:45:07;13.60;99.90
8928;DHT22;4499;48.304;11.902;2022-12-31T05:47:39;13.60;99.90
8928;DHT22;4499;48.304;11.902;2022-12-31T05:50:11;13.70;99.90
8928;DHT22;4499;48.304;11.902;2022-12-31T05:52:41;13.80;99.90
8928;DHT22;4499;48.304;11.902;2022-12-31T05:55:13;13.80;99.90
8928;DHT22;4499;48.304;11.902;2022-12-31T05:57:43;13.90;99.90
8928;DHT22;4499;48.304;11.902;2022-12-31T06:00:13;14.00;99.90
8928;DHT22;4499;48.304;11.902;2022-12-31T06:02:41;13.90;99.90
8928;DHT22;4499;48.304;11.902;2022-12-31T06:05:11;13.90;99.90
8928;DHT22;4499;48.304;11.902;2022-12-31T06:07:39;13.80;99.90
8928;DHT22;4499;48.304;11.902;2022-12-31T06:10:08;13.80;99.90
8928;DHT22;4499;48.304;11.902;2022-12-31T06:12:36;13.70;99.90
8928;DHT22;4499;48.304;11.902;2022-12-31T06:15:05;13.70;99.90
8928;DHT22;4499;48.304;11.902;2022-12-31T06:17:34;13.70;99.90
8928;DHT22;4499;48.304;11.902;2022-12-31T06:20:04;13.70;99.90
8928;DHT22;4499;48.304;11.902;2022-12-31T06:22:40;13.60;99.90
8928;DHT22;4499;48.304;11.902;2022-12-31T06:25:12;13.50;99.90
8928;DHT22;4499;48.304;11.902;2022-12-31T06:27:41;13.50;99.90
8928;DHT22;4499;48.304;11.902;2022-12-31T06:30:10;13.40;99.90
8928;DHT22;4499;48.304;11.902;2022-12-31T06:32:38;13.40;99.90
8928;DHT22;4499;48.304;11.902;2022-12-31T06:35:08;13.40;99.90
8928;DHT22;4499;48.304;11.902;2022-12-31T06:37:36;13.40;99.90
8928;DHT22;4499;48.304;11.902;2022-12-31T06:40:08;13.30;99.90
8928;DHT22;4499;48.304;11.902;2022-12-31T06:42:36;13.30;99.90
8928;DHT22;4499;48.304;11.902;2022-12-31T06:45:06;13.30;99.90
8928;DHT22;4499;48.304;11.902;2022-12-31T06:47:34;13.20;99.90
8928;DHT22;4499;48.304;11.902;2022-12-31T06:50:03;13.30;99.90
8928;DHT22;4499;48.304;11.902;2022-12-31T06:52:31;13.20;99.90
8928;DHT22;4499;48.304;11.902;2022-12-31T06:55:00;13.30;99.90
8928;DHT22;4499;48.304;11.902;2022-12-31T06:57:30;13.20;99.90
8928;DHT22;4499;48.304;11.902;2022-12-31T06:59:58;13.20;99.90
8928;DHT22;4499;48.304;11.902;2022-12-31T07:02:50;13.20;99.90
8928;DHT22;4499;48.304;11.902;2022-12-31T07:05:29;13.10;99.90
8928;DHT22;4499;48.304;11.902;2022-12-31T07:08:21;13.10;99.90
8928;DHT22;4499;48.304;11.902;2022-12-31T07:10:56;13.00;99.90
8928;DHT22;4499;48.304;11.902;2022-12-31T07:13:52;13.00;99.90
8928;DHT22;4499;48.304;11.902;2022-12-31T07:16:33;12.90;99.90
8928;DHT22;4499;48.304;11.902;2022-12-31T07:19:12;12.90;99.90
8928;DHT22;4499;48.304;11.902;2022-12-31T07:21:43;12.90;99.90
8928;DHT22;4499;48.304;11.902;2022-12-31T07:24:15;13.00;99.90
8928;DHT22;4499;48.304;11.902;2022-12-31T07:27:03;13.00;99.90
8928;DHT22;4499;48.304;11.902;2022-12-31T07:29:45;13.00;99.90
8928;DHT22;4499;48.304;11.902;2022-12-31T07:32:24;13.00;99.90
8928;DHT22;4499;48.304;11.902;2022-12-31T07:35:00;12.90;99.90
8928;DHT22;4499;48.304;11.902;2022-12-31T07:37:37;12.80;99.90
8928;DHT22;4499;48.304;11.902;2022-12-31T07:40:13;12.80;99.90
8928;DHT22;4499;48.304;11.902;2022-12-31T07:42:55;12.80;99.90
8928;DHT22;4499;48.304;11.902;2022-12-31T07:45:37;12.80;99.90
8928;DHT22;4499;48.304;11.902;2022-12-31T07:48:17;12.80;99.90
8928;DHT22;4499;48.304;11.902;2022-12-31T07:50:48;12.80;99.90
8928;DHT22;4499;48.304;11.902;2022-12-31T07:53:17;12.80;99.90
8928;DHT22;4499;48.304;11.902;2022-12-31T07:55:45;12.80;99.90
8928;DHT22;4499;48.304;11.902;2022-12-31T07:58:18;12.80;99.90
8928;DHT22;4499;48.304;11.902;2022-12-31T08:00:50;12.70;99.90
8928;DHT22;4499;48.304;11.902;2022-12-31T08:03:32;12.80;99.90
8928;DHT22;4499;48.304;11.902;2022-12-31T08:06:10;12.70;99.90
8928;DHT22;4499;48.304;11.902;2022-12-31T08:08:48;12.70;99.90
8928;DHT22;4499;48.304;11.902;2022-12-31T08:11:22;12.70;99.90
8928;DHT22;4499;48.304;11.902;2022-12-31T08:13:53;12.70;99.90
8928;DHT22;4499;48.304;11.902;2022-12-31T08:16:25;12.80;99.90
8928;DHT22;4499;48.304;11.902;2022-12-31T08:18:56;12.80;99.90
8928;DHT22;4499;48.304;11.902;2022-12-31T08:21:34;12.90;99.90
8928;DHT22;4499;48.304;11.902;2022-12-31T08:24:14;13.00;99.90
8928;DHT22;4499;48.304;11.902;2022-12-31T08:26:52;13.10;99.90
8928;DHT22;4499;48.304;11.902;2022-12-31T08:29:33;13.70;99.90
8928;DHT22;4499;48.304;11.902;2022-12-31T08:32:08;14.10;99.90
8928;DHT22;4499;48.304;11.902;2022-12-31T08:34:45;14.30;99.90
8928;DHT22;4499;48.304;11.902;2022-12-31T08:37:22;14.30;99.90
8928;DHT22;4499;48.304;11.902;2022-12-31T08:40:06;14.80;99.90
8928;DHT22;4499;48.304;11.902;2022-12-31T08:42:42;14.70;99.90
8928;DHT22;4499;48.304;11.902;2022-12-31T08:45:17;14.50;99.90
8928;DHT22;4499;48.304;11.902;2022-12-31T08:47:53;14.50;99.90
8928;DHT22;4499;48.304;11.902;2022-12-31T08:50:27;14.40;99.90
8928;DHT22;4499;48.304;11.902;2022-12-31T08:52:56;14.30;99.90
8928;DHT22;4499;48.304;11.902;2022-12-31T08:55:24;14.20;99.90
8928;DHT22;4499;48.304;11.902;2022-12-31T08:58:07;14.00;99.90
8928;DHT22;4499;48.304;11.902;2022-12-31T09:00:38;13.80;99.90
8928;DHT22;4499;48.304;11.902;2022-12-31T09:03:26;14.10;99.90
8928;DHT22;4499;48.304;11.902;2022-12-31T09:06:05;14.20;99.90
8928;DHT22;4499;48.304;11.902;2022-12-31T09:08:40;14.30;99.90
8928;DHT22;4499;48.304;11.902;2022-12-31T09:11:17;14.40;99.90
8928;DHT22;4499;48.304;11.902;2022-12-31T09:14:16;14.70;99.90
8928;DHT22;4499;48.304;11.902;2022-12-31T09:16:52;14.80;99.90
8928;DHT22;4499;48.304;11.902;2022-12-31T09:19:23;15.10;99.90
8928;DHT22;4499;48.304;11.902;2022-12-31T09:21:52;15.20;99.90
8928;DHT22;4499;48.304;11.902;2022-12-31T09:24:21;15.20;99.90
8928;DHT22;4499;48.304;11.902;2022-12-31T09:26:59;15.20;99.90
8928;DHT22;4499;48.304;11.902;2022-12-31T09:29:50;15.20;99.90
8928;DHT22;4499;48.304;11.902;2022-12-31T09:32:27;15.20;99.90
8928;DHT22;4499;48.304;11.902;2022-12-31T09:35:03;15.20;99.90
8928;DHT22;4499;48.304;11.902;2022-12-31T09:37:44;15.10;99.90
8928;DHT22;4499;48.304;11.902;2022-12-31T09:40:47;15.10;99.90
8928;DHT22;4499;48.304;11.902;2022-12-31T09:43:47;15.00;99.90
8928;DHT22;4499;48.304;11.902;2022-12-31T09:46:55;14.90;99.90
8928;DHT22;4499;48.304;11.902;2022-12-31T09:49:47;14.70;99.90
8928;DHT22;4499;48.304;11.902;2022-12-31T09:52:29;14.70;99.90
8928;DHT22;4499;48.304;11.902;2022-12-31T09:55:27;14.80;99.90
8928;DHT22;4499;48.304;11.902;2022-12-31T10:00:40;14.80;99.90
8928;DHT22;4499;48.304;11.902;2022-12-31T10:03:25;14.90;99.90
8928;DHT22;4499;48.304;11.902;2022-12-31T10:06:20;15.10;99.90
8928;DHT22;4499;48.304;11.902;2022-12-31T10:12:05;15.50;99.90
8928;DHT22;4499;48.304;11.902;2022-12-31T10:14:50;15.60;99.90
8928;DHT22;4499;48.304;11.902;2022-12-31T10:17:34;15.80;99.90
8928;DHT22;4499;48.304;11.902;2022-12-31T10:20:23;16.10;99.90
8928;DHT22;4499;48.304;11.902;2022-12-31T10:23:16;16.20;99.90
8928;DHT22;4499;48.304;11.902;2022-12-31T10:26:04;16.20;99.90
8928;DHT22;4499;48.304;11.902;2022-12-31T10:28:39;15.90;99.90
8928;DHT22;4499;48.304;11.902;2022-12-31T10:31:23;15.80;99.90
8928;DHT22;4499;48.304;11.902;2022-12-31T10:34:11;15.60;99.90
8928;DHT22;4499;48.304;11.902;2022-12-31T10:36:53;15.60;99.90
8928;DHT22;4499;48.304;11.902;2022-12-31T10:39:38;15.50;99.90
8928;DHT22;4499;48.304;11.902;2022-12-31T10:45:40;15.40;99.90
8928;DHT22;4499;48.304;11.902;2022-12-31T10:48:35;15.40;99.90
8928;DHT22;4499;48.304;11.902;2022-12-31T10:51:40;15.40;99.90
8928;DHT22;4499;48.304;11.902;2022-12-31T11:00:42;15.20;99.90
8928;DHT22;4499;48.304;11.902;2022-12-31T11:06:45;15.10;99.90
8928;DHT22;4499;48.304;11.902;2022-12-31T11:12:27;15.10;99.90
8928;DHT22;4499;48.304;11.902;2022-12-31T11:15:16;15.00;99.90
8928;DHT22;4499;48.304;11.902;2022-12-31T11:17:58;15.00;99.90
8928;DHT22;4499;48.304;11.902;2022-12-31T11:20:41;15.10;99.90
8928;DHT22;4499;48.304;11.902;2022-12-31T11:23:27;15.20;99.90
8928;DHT22;4499;48.304;11.902;2022-12-31T11:26:07;15.20;99.90
8928;DHT22;4499;48.304;11.902;2022-12-31T11:28:53;15.30;99.90
8928;DHT22;4499;48.304;11.902;2022-12-31T11:35:03;15.40;99.90
8928;DHT22;4499;48.304;11.902;2022-12-31T11:37:41;15.40;99.90
8928;DHT22;4499;48.304;11.902;2022-12-31T11:40:45;15.50;99.90
8928;DHT22;4499;48.304;11.902;2022-12-31T11:43:25;15.50;99.90
8928;DHT22;4499;48.304;11.902;2022-12-31T11:49:23;15.60;99.90
8928;DHT22;4499;48.304;11.902;2022-12-31T11:52:14;15.70;99.90
8928;DHT22;4499;48.304;11.902;2022-12-31T11:54:56;15.80;99.90
8928;DHT22;4499;48.304;11.902;2022-12-31T11:57:31;15.90;99.90
8928;DHT22;4499;48.304;11.902;2022-12-31T12:00:05;16.10;99.90
8928;DHT22;4499;48.304;11.902;2022-12-31T12:02:43;16.20;99.90
8928;DHT22;4499;48.304;11.902;2022-12-31T12:05:14;16.20;99.90
8928;DHT22;4499;48.304;11.902;2022-12-31T12:07:45;16.30;99.90
8928;DHT22;4499;48.304;11.902;2022-12-31T12:10:21;16.50;99.90
8928;DHT22;4499;48.304;11.902;2022-12-31T12:12:59;16.60;99.90
8928;DHT22;4499;48.304;11.902;2022-12-31T12:15:30;16.60;99.90
8928;DHT22;4499;48.304;11.902;2022-12-31T12:18:07;16.80;99.90
8928;DHT22;4499;48.304;11.902;2022-12-31T12:21:04;16.70;99.90
8928;DHT22;4499;48.304;11.902;2022-12-31T12:24:01;16.80;99.90
8928;DHT22;4499;48.304;11.902;2022-12-31T12:26:55;17.00;99.90
8928;DHT22;4499;48.304;11.902;2022-12-31T12:29:48;17.10;99.90
8928;DHT22;4499;48.304;11.902;2022-12-31T12:32:19;17.30;99.90
8928;DHT22;4499;48.304;11.902;2022-12-31T12:34:47;17.30;99.90
8928;DHT22;4499;48.304;11.902;2022-12-31T12:37:30;17.10;99.90
8928;DHT22;4499;48.304;11.902;2022-12-31T12:40:02;16.90;99.90
8928;DHT22;4499;48.304;11.902;2022-12-31T12:42:31;17.00;99.90
8928;DHT22;4499;48.304;11.902;2022-12-31T12:45:01;17.00;99.90
8928;DHT22;4499;48.304;11.902;2022-12-31T12:47:32;16.90;99.90
8928;DHT22;4499;48.304;11.902;2022-12-31T12:50:04;16.90;99.90
8928;DHT22;4499;48.304;11.902;2022-12-31T12:52:52;16.90;99.90
8928;DHT22;4499;48.304;11.902;2022-12-31T12:55:32;16.80;99.90
8928;DHT22;4499;48.304;11.902;2022-12-31T13:00:55;16.80;99.90
8928;DHT22;4499;48.304;11.902;2022-12-31T13:07:01;16.60;99.90
8928;DHT22;4499;48.304;11.902;2022-12-31T13:09:43;16.60;99.90
8928;DHT22;4499;48.304;11.902;2022-12-31T13:12:20;16.70;99.90
8928;DHT22;4499;48.304;11.902;2022-12-31T13:15:18;16.70;99.90
8928;DHT22;4499;48.304;11.902;2022-12-31T13:17:58;16.80;99.90
8928;DHT22;4499;48.304;11.902;2022-12-31T13:20:34;16.80;99.90
8928;DHT22;4499;48.304;11.902;2022-12-31T13:23:13;17.00;99.90
8928;DHT22;4499;48.304;11.902;2022-12-31T13:25:57;16.90;99.90
8928;DHT22;4499;48.304;11.902;2022-12-31T13:28:30;16.80;99.90
8928;DHT22;4499;48.304;11.902;2022-12-31T13:31:00;16.80;99.90
8928;DHT22;4499;48.304;11.902;2022-12-31T13:33:36;16.80;99.90
8928;DHT22;4499;48.304;11.902;2022-12-31T13:36:09;16.80;99.90
8928;DHT22;4499;48.304;11.902;2022-12-31T13:38:43;16.70;99.90
8928;DHT22;4499;48.304;11.902;2022-12-31T13:41:16;16.70;99.90
8928;DHT22;4499;48.304;11.902;2022-12-31T13:43:52;16.60;99.90
8928;DHT22;4499;48.304;11.902;2022-12-31T13:46:30;16.50;99.90
8928;DHT22;4499;48.304;11.902;2022-12-31T13:49:04;16.60;99.90
8928;DHT22;4499;48.304;11.902;2022-12-31T13:51:39;16.60;99.90
8928;DHT22;4499;48.304;11.902;2022-12-31T13:54:17;16.50;99.90
8928;DHT22;4499;48.304;11.902;2022-12-31T13:56:52;16.40;99.90
8928;DHT22;4499;48.304;11.902;2022-12-31T13:59:27;16.30;99.90
8928;DHT22;4499;48.304;11.902;2022-12-31T14:01:59;16.20;99.90
8928;DHT22;4499;48.304;11.902;2022-12-31T14:04:31;16.30;99.90
8928;DHT22;4499;48.304;11.902;2022-12-31T14:07:06;16.30;99.90
8928;DHT22;4499;48.304;11.902;2022-12-31T14:10:11;16.30;99.90
8928;DHT22;4499;48.304;11.902;2022-12-31T14:12:45;16.00;99.90
8928;DHT22;4499;48.304;11.902;2022-12-31T14:15:21;15.90;99.90
8928;DHT22;4499;48.304;11.902;2022-12-31T14:17:58;15.80;99.90
8928;DHT22;4499;48.304;11.902;2022-12-31T14:20:32;15.70;99.90
8928;DHT22;4499;48.304;11.902;2022-12-31T14:23:11;15.60;99.90
8928;DHT22;4499;48.304;11.902;2022-12-31T14:25:46;15.50;99.90
8928;DHT22;4499;48.304;11.902;2022-12-31T14:28:19;15.30;99.90
8928;DHT22;4499;48.304;11.902;2022-12-31T14:30:54;15.20;99.90
8928;DHT22;4499;48.304;11.902;2022-12-31T14:33:33;15.10;99.90
8928;DHT22;4499;48.304;11.902;2022-12-31T14:36:26;15.00;99.90
8928;DHT22;4499;48.304;11.902;2022-12-31T14:39:12;14.90;99.90
8928;DHT22;4499;48.304;11.902;2022-12-31T14:41:50;14.80;99.90
8928;DHT22;4499;48.304;11.902;2022-12-31T14:44:31;14.70;99.90
8928;DHT22;4499;48.304;11.902;2022-12-31T14:47:17;14.60;99.90
8928;DHT22;4499;48.304;11.902;2022-12-31T14:49:54;14.50;99.90
8928;DHT22;4499;48.304;11.902;2022-12-31T14:52:27;14.40;99.90
8928;DHT22;4499;48.304;11.902;2022-12-31T14:54:58;14.30;99.90
8928;DHT22;4499;48.304;11.902;2022-12-31T14:57:35;14.20;99.90
8928;DHT22;4499;48.304;11.902;2022-12-31T15:00:31;14.10;99.90
8928;DHT22;4499;48.304;11.902;2022-12-31T15:03:04;14.00;99.90
8928;DHT22;4499;48.304;11.902;2022-12-31T15:05:34;13.80;99.90
8928;DHT22;4499;48.304;11.902;2022-12-31T15:08:19;13.70;99.90
8928;DHT22;4499;48.304;11.902;2022-12-31T15:11:03;13.60;99.90
8928;DHT22;4499;48.304;11.902;2022-12-31T15:13:44;13.60;99.90
8928;DHT22;4499;48.304;11.902;2022-12-31T15:16:23;13.50;99.90
8928;DHT22;4499;48.304;11.902;2022-12-31T15:19:09;13.30;99.90
8928;DHT22;4499;48.304;11.902;2022-12-31T15:21:55;13.10;99.90
8928;DHT22;4499;48.304;11.902;2022-12-31T15:24:27;13.10;99.90
8928;DHT22;4499;48.304;11.902;2022-12-31T15:26:58;13.00;99.90
8928;DHT22;4499;48.304;11.902;2022-12-31T15:29:29;12.90;99.90
8928;DHT22;4499;48.304;11.902;2022-12-31T15:32:31;12.80;99.90
8928;DHT22;4499;48.304;11.902;2022-12-31T15:35:24;12.70;99.90
8928;DHT22;4499;48.304;11.902;2022-12-31T15:37:59;12.60;99.90
8928;DHT22;4499;48.304;11.902;2022-12-31T15:40:28;12.50;99.90
8928;DHT22;4499;48.304;11.902;2022-12-31T15:42:59;12.40;99.90
8928;DHT22;4499;48.304;11.902;2022-12-31T15:45:54;12.30;99.90
8928;DHT22;4499;48.304;11.902;2022-12-31T15:48:25;12.20;99.90
8928;DHT22;4499;48.304;11.902;2022-12-31T15:51:27;12.20;99.90
8928;DHT22;4499;48.304;11.902;2022-12-31T15:53:58;12.10;99.90
8928;DHT22;4499;48.304;11.902;2022-12-31T15:56:32;12.00;99.90
8928;DHT22;4499;48.304;11.902;2022-12-31T15:59:04;11.90;99.90
8928;DHT22;4499;48.304;11.902;2022-12-31T16:01:35;11.90;99.90
8928;DHT22;4499;48.304;11.902;2022-12-31T16:04:11;11.80;99.90
8928;DHT22;4499;48.304;11.902;2022-12-31T16:06:44;11.80;99.90
8928;DHT22;4499;48.304;11.902;2022-12-31T16:09:20;11.70;99.90
8928;DHT22;4499;48.304;11.902;2022-12-31T16:11:50;11.50;99.90
8928;DHT22;4499;48.304;11.902;2022-12-31T16:14:21;11.50;99.90
8928;DHT22;4499;48.304;11.902;2022-12-31T16:16:54;11.50;99.90
8928;DHT22;4499;48.304;11.902;2022-12-31T16:19:31;11.40;99.90
8928;DHT22;4499;48.304;11.902;2022-12-31T16:22:13;11.30;99.90
8928;DHT22;4499;48.304;11.902;2022-12-31T16:24:42;11.30;99.90
8928;DHT22;4499;48.304;11.902;2022-12-31T16:27:39;11.20;99.90
8928;DHT22;4499;48.304;11.902;2022-12-31T16:30:19;11.10;99.90
8928;DHT22;4499;48.304;11.902;2022-12-31T16:32:49;11.10;99.90
8928;DHT22;4499;48.304;11.902;2022-12-31T16:35:22;11.00;99.90
8928;DHT22;4499;48.304;11.902;2022-12-31T16:38:10;11.00;99.90
8928;DHT22;4499;48.304;11.902;2022-12-31T16:40:40;10.90;99.90
8928;DHT22;4499;48.304;11.902;2022-12-31T16:43:21;11.00;99.90
8928;DHT22;4499;48.304;11.902;2022-12-31T16:45:51;10.90;99.90
8928;DHT22;4499;48.304;11.902;2022-12-31T16:48:20;10.90;99.90
8928;DHT22;4499;48.304;11.902;2022-12-31T16:50:50;10.90;99.90
8928;DHT22;4499;48.304;11.902;2022-12-31T16:53:24;10.80;99.90
8928;DHT22;4499;48.304;11.902;2022-12-31T16:55:55;10.70;99.90
8928;DHT22;4499;48.304;11.902;2022-12-31T16:58:26;10.60;99.90
8928;DHT22;4499;48.304;11.902;2022-12-31T17:01:00;10.50;99.90
8928;DHT22;4499;48.304;11.902;2022-12-31T17:03:31;10.40;99.90
8928;DHT22;4499;48.304;11.902;2022-12-31T17:06:10;10.30;99.90
8928;DHT22;4499;48.304;11.902;2022-12-31T17:08:44;10.30;99.90
8928;DHT22;4499;48.304;11.902;2022-12-31T17:11:17;10.30;99.90
8928;DHT22;4499;48.304;11.902;2022-12-31T17:14:05;10.30;99.90
8928;DHT22;4499;48.304;11.902;2022-12-31T17:17:00;10.30;99.90
8928;DHT22;4499;48.304;11.902;2022-12-31T17:19:40;10.30;99.90
8928;DHT22;4499;48.304;11.902;2022-12-31T17:22:16;10.20;99.90